Time;durP1;ratioP1;P1;durP2;ratioP2;P2;SDS_P1;SDS_P2;PMS_P1;PMS_P2;Temp;Humidity;BMP_temperature;BMP_pressure;BME280_temperature;BME280_humidity;BME280_pressure;Samples;Min_cycle;Max_cycle;Signal;HPM_P1;HPM_P2
2021/03/19 06:03:46;;;;;;;10.95;6.05;;;;;;;1.78;75.49;99520.35;1790940;77;948087;-58
2021/03/19 06:06:15;;;;;;;13.03;7.08;;;;;;;1.73;75.42;99526.28;1773901;79;21304;-57
2021/03/19 06:08:47;;;;;;;13.93;7.45;;;;;;;1.66;75.33;99526.35;1760748;80;21244;-58
2021/03/19 06:11:24;;;;;;;11.73;6.25;;;;;;;1.60;75.57;99521.16;1772739;79;21543;-55
2021/03/19 06:14:03;;;;;;;12.78;6.78;;;;;;;1.60;75.57;99521.16;1760944;80;21135;-57
2021/03/19 06:16:44;;;;;;;12.82;7.10;;;;;;;1.58;75.56;99524.31;1751299;80;21203;-58
2021/03/19 06:19:39;;;;;;;17.12;8.83;;;;;;;1.56;75.60;99527.46;1743316;80;21577;-57
2021/03/19 06:22:14;;;;;;;;;;;;;;;1.60;75.65;99526.77;1748949;81;21204;-58
2021/03/19 06:24:43;;;;;;;37.38;16.90;;;;;;;1.66;75.72;99522.48;1736708;81;20473;-57
2021/03/19 06:27:25;;;;;;;25.27;10.78;;;;;;;1.80;75.73;99525.39;1771089;80;21151;-57
2021/03/19 06:29:56;;;;;;;14.90;7.50;;;;;;;1.88;75.30;99520.55;1717476;81;21320;-57
2021/03/19 06:32:31;;;;;;;29.27;11.70;;;;;;;1.96;74.69;99523.88;1747405;81;21618;-57
2021/03/19 06:35:15;;;;;;;42.05;17.30;;;;;;;2.02;74.32;99528.59;1764981;79;21322;-58
2021/03/19 06:37:49;;;;;;;20.10;9.03;;;;;;;2.05;74.07;99527.93;1750920;79;21164;-57
2021/03/19 06:40:38;;;;;;;33.17;15.00;;;;;;;2.10;74.10;99525.83;1737232;81;21300;-58
2021/03/19 06:43:26;;;;;;;16.25;8.05;;;;;;;2.13;73.74;99524.34;1766324;79;21913;-60
2021/03/19 06:46:32;;;;;;;22.73;9.95;;;;;;;2.19;73.92;99528.23;1752198;80;21567;-59
2021/03/19 06:49:04;;;;;;;20.23;8.30;;;;;;;2.23;73.63;99539.14;1725149;81;21563;-60
2021/03/19 06:51:42;;;;;;;20.55;9.85;;;;;;;2.25;73.45;99534.72;1747700;81;21332;-58
2021/03/19 06:54:27;;;;;;;12.30;7.30;;;;;;;2.26;73.52;99534.60;1742147;81;21254;-58
2021/03/19 06:57:09;;;;;;;18.50;8.10;;;;;;;2.31;73.41;99537.68;1736398;81;21194;-59
2021/03/19 06:59:58;;;;;;;15.75;8.15;;;;;;;2.36;73.29;99534.75;1733694;80;21699;-59
2021/03/19 07:02:59;;;;;;;15.60;8.78;;;;;;;2.41;72.96;99530.91;1743521;80;21733;-61
2021/03/19 07:06:06;;;;;;;20.35;8.85;;;;;;;2.47;72.71;99535.28;1733756;81;21788;-59
2021/03/19 07:08:49;;;;;;;28.25;11.12;;;;;;;2.52;72.78;99533.20;1746312;81;21630;-58
2021/03/19 07:11:40;;;;;;;14.75;8.25;;;;;;;2.55;72.90;99533.00;1736741;81;21280;-59
2021/03/19 07:14:41;;;;;;;12.40;7.62;;;;;;;2.62;73.39;99530.33;1737118;81;21582;-59
2021/03/19 07:17:31;;;;;;;17.82;9.23;;;;;;;2.76;73.29;99539.63;1738666;81;21392;-59
2021/03/19 07:20:33;;;;;;;26.65;11.03;;;;;;;2.88;72.31;99537.45;1738125;81;21243;-58
2021/03/19 07:23:16;;;;;;;32.23;10.05;;;;;;;3.00;71.93;99542.17;1713757;83;22010;-57
2021/03/19 07:26:10;;;;;;;13.13;7.23;;;;;;;3.06;71.91;99540.43;1722118;82;21160;-58
2021/03/19 07:29:09;;;;;;;19.45;8.55;;;;;;;3.08;71.46;99547.11;1745815;81;21852;-59
2021/03/19 07:31:50;;;;;;;14.65;8.53;;;;;;;3.10;71.59;99544.41;1745466;81;21247;-58
2021/03/19 07:34:45;;;;;;;14.98;8.40;;;;;;;3.08;71.41;99536.78;1750091;80;21178;-59
2021/03/19 07:37:50;;;;;;;12.75;6.85;;;;;;;3.04;71.20;99534.54;1791098;77;22221;-58
2021/03/19 07:40:40;;;;;;;35.80;10.35;;;;;;;2.96;71.37;99538.52;1821018;78;21565;-58
2021/03/19 07:43:41;;;;;;;14.80;6.67;;;;;;;2.97;71.37;99538.05;1722968;81;21646;-59
2021/03/19 07:46:29;;;;;;;10.43;6.40;;;;;;;3.02;71.28;99539.00;1679870;84;21780;-57
2021/03/19 07:49:12;;;;;;;7.87;5.62;;;;;;;3.11;71.11;99543.03;1684457;81;21820;-58
2021/03/19 07:51:52;;;;;;;11.85;6.28;;;;;;;3.31;70.76;99538.95;1719809;82;21643;-58
2021/03/19 07:54:41;;;;;;;14.05;7.17;;;;;;;3.52;70.59;99541.66;1755420;81;21598;-57
2021/03/19 07:57:30;;;;;;;18.67;8.73;;;;;;;3.69;70.02;99539.09;1742693;81;21554;-59
2021/03/19 08:00:33;;;;;;;22.52;7.70;;;;;;;3.92;70.41;99538.61;1708845;82;22229;-56
2021/03/19 08:03:13;;;;;;;21.55;7.92;;;;;;;4.05;69.25;99543.17;1699183;84;21296;-58
2021/03/19 08:05:50;;;;;;;10.88;5.95;;;;;;;4.18;68.53;99550.31;1694926;83;21577;-56
2021/03/19 08:09:04;;;;;;;8.93;6.05;;;;;;;4.27;68.16;99553.45;1707347;84;21265;-56
2021/03/19 08:11:53;;;;;;;8.50;5.90;;;;;;;4.28;67.31;99552.98;1642539;86;21776;-57
2021/03/19 08:14:39;;;;;;;9.43;5.87;;;;;;;4.20;67.02;99556.18;1748670;81;21170;-56
2021/03/19 08:17:37;;;;;;;11.25;5.60;;;;;;;4.17;67.15;99553.03;1760176;81;21189;-57
2021/03/19 08:20:22;;;;;;;8.08;5.22;;;;;;;4.19;67.01;99545.97;1759876;81;21147;-58
2021/03/19 08:22:58;;;;;;;5.83;4.17;;;;;;;4.28;67.14;99550.39;1753628;81;22324;-57
2021/03/19 08:25:37;;;;;;;10.05;4.35;;;;;;;4.50;66.38;99550.82;1758967;81;21739;-55
2021/03/19 08:28:28;;;;;;;7.17;4.62;;;;;;;4.71;64.97;99554.73;1760975;81;21628;-58
2021/03/19 08:31:17;;;;;;;6.10;4.00;;;;;;;4.89;64.14;99555.02;1762047;81;21554;-57
2021/03/19 08:34:03;;;;;;;5.30;3.62;;;;;;;4.99;62.93;99560.63;1747825;81;21788;-59
2021/03/19 08:36:44;;;;;;;12.07;5.15;;;;;;;5.04;61.87;99559.77;1726862;83;21618;-57
2021/03/19 08:39:30;;;;;;;8.55;5.12;;;;;;;5.18;62.01;99559.11;1762316;80;21609;-57
2021/03/19 08:42:17;;;;;;;9.95;5.67;;;;;;;5.34;62.64;99559.02;1761168;81;21657;-57
2021/03/19 08:44:46;;;;;;;8.68;5.00;;;;;;;5.54;61.87;99563.00;1759503;81;21153;-58
2021/03/19 08:47:40;;;;;;;9.95;5.03;;;;;;;5.62;61.07;99561.39;1760914;81;21167;-57
2021/03/19 08:50:35;;;;;;;7.47;4.72;;;;;;;5.73;60.33;99561.80;1760657;81;21162;-58
2021/03/19 08:53:20;;;;;;;6.35;4.33;;;;;;;5.78;60.30;99567.41;1760558;81;21153;-57
2021/03/19 08:56:11;;;;;;;5.85;4.12;;;;;;;5.74;59.20;99566.02;1746826;81;21662;-57
2021/03/19 08:58:50;;;;;;;8.03;4.90;;;;;;;5.68;58.47;99566.54;1754852;80;21597;-58
2021/03/19 09:01:52;;;;;;;10.50;4.87;;;;;;;5.59;58.59;99567.30;1764784;80;21609;-57
2021/03/19 09:04:52;;;;;;;8.15;5.60;;;;;;;5.49;58.52;99575.52;1758316;81;21178;-56
2021/03/19 09:07:33;;;;;;;7.58;4.10;;;;;;;5.36;58.48;99569.24;1737091;81;21197;-57
2021/03/19 09:10:22;;;;;;;5.50;3.95;;;;;;;5.27;58.38;99569.52;1756242;80;21166;-57
2021/03/19 09:13:08;;;;;;;7.65;4.45;;;;;;;5.20;58.01;99574.04;1753359;81;21638;-55
2021/03/19 09:15:42;;;;;;;8.38;3.77;;;;;;;5.18;58.33;99572.88;1746989;80;21515;-56
2021/03/19 09:18:45;;;;;;;8.48;4.22;;;;;;;5.12;58.21;99572.09;1757089;81;21812;-57
2021/03/19 09:21:37;;;;;;;5.80;3.85;;;;;;;5.16;58.77;99569.60;1791342;80;21610;-55
2021/03/19 09:24:22;;;;;;;5.10;3.85;;;;;;;5.35;58.90;99572.31;1765451;80;21612;-56
2021/03/19 09:26:56;;;;;;;7.58;3.90;;;;;;;5.53;57.43;99570.44;1761027;81;21150;-55
2021/03/19 09:29:31;;;;;;;7.40;4.30;;;;;;;5.62;57.31;99568.35;1759804;81;21225;-55
2021/03/19 09:32:32;;;;;;;13.00;5.33;;;;;;;5.66;56.58;99564.08;1730280;81;21308;-57
2021/03/19 09:35:06;;;;;;;11.65;4.90;;;;;;;5.68;56.27;99567.36;1732990;81;21259;-57
2021/03/19 09:37:46;;;;;;;7.40;4.65;;;;;;;5.64;56.30;99571.63;1737932;81;21573;-56
2021/03/19 09:40:48;;;;;;;6.70;4.47;;;;;;;5.58;56.44;99566.48;1739773;81;21594;-54
2021/03/19 09:43:46;;;;;;;5.33;3.80;;;;;;;5.50;56.04;99568.91;1742127;81;21602;-57
2021/03/19 09:46:27;;;;;;;6.17;3.77;;;;;;;5.39;55.85;99571.56;1756419;82;21744;-54
2021/03/19 09:49:08;;;;;;;13.20;5.12;;;;;;;5.29;55.74;99573.30;1756629;82;21562;-57
2021/03/19 09:51:45;;;;;;;6.28;4.12;;;;;;;5.18;55.80;99573.36;1751828;82;21558;-58
2021/03/19 09:54:22;;;;;;;16.10;8.15;;;;;;;5.13;55.63;99577.13;1730254;81;21135;-56
2021/03/19 09:56:55;;;;;;;11.60;6.05;;;;;;;5.12;55.77;99577.27;1743610;81;21131;-60
2021/03/19 09:59:27;;;;;;;6.12;3.80;;;;;;;5.12;56.34;99578.09;1752872;81;21269;-59
2021/03/19 10:01:57;;;;;;;5.75;3.80;;;;;;;5.17;55.76;99576.89;1741098;81;21341;-60
2021/03/19 10:04:34;;;;;;;4.20;3.10;;;;;;;5.17;55.24;99574.31;1738052;81;21155;-57
2021/03/19 10:07:16;;;;;;;6.97;3.83;;;;;;;5.12;55.22;99572.09;1746973;81;21300;-59
2021/03/19 10:09:50;;;;;;;9.58;4.62;;;;;;;5.21;55.55;99576.97;1749325;81;21277;-58
2021/03/19 10:12:22;;;;;;;6.15;4.03;;;;;;;5.36;55.37;99579.13;1747007;82;21816;-59
2021/03/19 10:14:56;;;;;;;6.05;3.75;;;;;;;5.58;55.06;99578.14;1734174;82;21542;-58
2021/03/19 10:17:33;;;;;;;11.97;4.83;;;;;;;5.73;54.77;99573.45;1739628;82;21175;-58
2021/03/19 10:20:16;;;;;;;26.23;7.72;;;;;;;5.72;54.29;99571.00;1748896;81;21637;-56
2021/03/19 10:22:48;;;;;;;13.83;5.50;;;;;;;5.60;54.21;99574.97;1739149;81;21174;-57
2021/03/19 10:25:32;;;;;;;5.90;3.90;;;;;;;5.54;53.97;99588.44;1734519;81;21169;-58
2021/03/19 10:28:11;;;;;;;9.60;5.47;;;;;;;5.42;54.54;99581.69;1740703;81;21606;-57
2021/03/19 10:30:44;;;;;;;9.23;4.60;;;;;;;5.28;54.65;99580.25;1751196;81;21174;-57
2021/03/19 10:33:20;;;;;;;7.05;3.83;;;;;;;5.21;54.96;99582.97;1736368;81;21148;-58
2021/03/19 10:35:57;;;;;;;12.40;5.10;;;;;;;5.19;55.32;99577.58;1733128;82;21138;-58
2021/03/19 10:38:46;;;;;;;5.92;3.70;;;;;;;5.20;55.55;99572.74;1743203;82;21315;-57
2021/03/19 10:41:47;;;;;;;7.35;4.08;;;;;;;5.21;54.95;99583.45;1758797;81;21305;-57
2021/03/19 10:45:12;;;;;;;7.00;3.70;;;;;;;5.25;54.73;99581.78;1734145;81;21174;-58
2021/03/19 10:47:57;;;;;;;9.45;4.37;;;;;;;5.32;54.31;99576.91;1738862;82;21135;-60
2021/03/19 10:50:33;;;;;;;8.35;4.35;;;;;;;5.35;54.43;99583.16;1747257;81;21622;-58
2021/03/19 10:53:06;;;;;;;18.02;5.92;;;;;;;5.35;54.31;99580.08;1743778;82;21182;-58
2021/03/19 10:55:36;;;;;;;9.68;4.33;;;;;;;5.35;54.13;99581.37;1755035;81;21655;-57
2021/03/19 10:58:25;;;;;;;15.68;6.47;;;;;;;5.33;53.59;99586.32;1750011;81;21288;-58
2021/03/19 11:00:54;;;;;;;16.50;5.45;;;;;;;5.26;53.36;99587.30;1747177;81;21562;-58
2021/03/19 11:03:49;;;;;;;9.23;4.28;;;;;;;5.20;53.60;99584.40;1746535;81;21563;-58
2021/03/19 11:06:41;;;;;;;15.38;5.42;;;;;;;5.07;54.01;99580.70;1745568;81;21701;-59
2021/03/19 11:09:20;;;;;;;8.40;4.30;;;;;;;4.99;54.03;99580.04;1746746;81;21159;-59
2021/03/19 11:11:58;;;;;;;5.33;3.47;;;;;;;4.95;54.01;99577.81;1746269;82;21178;-61
2021/03/19 11:14:29;;;;;;;6.95;3.47;;;;;;;4.92;53.47;99584.08;1746685;82;21579;-57
2021/03/19 11:17:16;;;;;;;4.22;3.15;;;;;;;5.01;52.98;99578.14;1746350;82;21174;-58
2021/03/19 11:20:07;;;;;;;3.87;2.75;;;;;;;5.18;52.43;99579.35;1747093;82;21606;-60
2021/03/19 11:22:40;;;;;;;4.87;3.10;;;;;;;5.40;52.40;99577.94;1768983;81;21619;-57
2021/03/19 11:25:46;;;;;;;3.08;2.12;;;;;;;5.53;51.54;99579.51;1778582;81;21730;-58
2021/03/19 11:28:31;;;;;;;3.77;2.83;;;;;;;5.66;50.51;99574.45;1779004;80;21163;-56
2021/03/19 11:31:29;;;;;;;7.55;3.87;;;;;;;5.93;51.52;99575.20;1747057;81;21613;-58
2021/03/19 11:34:07;;;;;;;4.53;2.90;;;;;;;6.01;50.59;99582.80;1743361;81;21159;-58
2021/03/19 11:36:57;;;;;;;6.58;3.80;;;;;;;5.96;49.59;99581.88;1747668;82;21166;-57
2021/03/19 11:40:03;;;;;;;5.55;3.35;;;;;;;5.88;49.46;99581.22;1755944;82;21640;-59
2021/03/19 11:42:45;;;;;;;5.40;3.00;;;;;;;5.83;49.61;99576.08;1749412;82;21324;-59
2021/03/19 11:45:22;;;;;;;4.35;3.00;;;;;;;5.84;49.04;99584.22;1757193;81;21584;-58
2021/03/19 11:48:04;;;;;;;5.08;3.20;;;;;;;5.80;48.68;99578.47;1757076;81;21553;-59
2021/03/19 11:50:39;;;;;;;5.33;3.35;;;;;;;5.81;48.83;99578.80;1757563;81;22310;-60
2021/03/19 11:53:21;;;;;;;5.72;3.27;;;;;;;5.82;48.68;99578.33;1758906;81;21161;-58
2021/03/19 11:55:55;;;;;;;5.35;3.30;;;;;;;5.72;49.00;99577.48;1758775;81;21684;-59
2021/03/19 11:58:28;;;;;;;5.05;2.83;;;;;;;5.67;49.02;99579.16;1753135;80;21282;-58
2021/03/19 12:00:56;;;;;;;4.55;2.80;;;;;;;5.71;48.87;99579.23;1768803;80;21260;-57
2021/03/19 12:03:45;;;;;;;3.45;2.50;;;;;;;5.78;48.64;99585.56;1757321;80;21158;-57
2021/03/19 12:06:16;;;;;;;5.22;2.58;;;;;;;5.85;48.71;99584.56;1753744;82;21574;-58
2021/03/19 12:08:45;;;;;;;5.90;2.80;;;;;;;5.85;48.46;99585.86;1724103;82;21719;-58
2021/03/19 12:11:27;;;;;;;8.28;5.15;;;;;;;5.78;48.60;99576.97;1766303;80;21609;-57
2021/03/19 12:13:56;;;;;;;3.85;2.95;;;;;;;5.81;48.57;99577.98;1752961;82;21320;-58
2021/03/19 12:16:24;;;;;;;5.97;3.10;;;;;;;5.84;48.25;99582.45;1748266;82;21218;-58
2021/03/19 12:18:53;;;;;;;3.65;2.83;;;;;;;5.84;48.02;99586.81;1751101;80;21152;-59
2021/03/19 12:21:24;;;;;;;5.62;3.33;;;;;;;5.84;48.21;99581.63;1740331;80;21535;-57
2021/03/19 12:23:55;;;;;;;3.60;2.70;;;;;;;5.88;47.15;99580.40;1754092;80;21150;-58
2021/03/19 12:26:24;;;;;;;5.87;3.37;;;;;;;5.98;46.37;99580.00;1757020;80;21605;-58
2021/03/19 12:28:53;;;;;;;5.28;3.70;;;;;;;6.11;46.58;99579.77;1755926;82;21638;-57
2021/03/19 12:31:21;;;;;;;8.55;4.03;;;;;;;6.19;46.00;99583.33;1757726;80;21514;-57
2021/03/19 12:33:50;;;;;;;6.55;3.92;;;;;;;6.29;46.51;99578.17;1758777;80;21557;-59
2021/03/19 12:36:19;;;;;;;5.83;3.33;;;;;;;6.51;45.54;99587.48;1756824;80;21550;-58
2021/03/19 12:38:47;;;;;;;5.08;3.27;;;;;;;6.67;45.36;99585.68;1753020;82;22032;-60
2021/03/19 12:41:16;;;;;;;3.87;2.95;;;;;;;6.78;45.14;99586.85;1746186;80;21526;-57
2021/03/19 12:43:45;;;;;;;4.58;3.12;;;;;;;6.90;44.46;99586.25;1743919;80;21614;-58
2021/03/19 12:46:14;;;;;;;6.60;3.58;;;;;;;7.00;44.19;99587.86;1750022;80;22419;-59
2021/03/19 12:48:43;;;;;;;6.00;4.08;;;;;;;7.09;43.59;99592.73;1757987;80;21605;-60
2021/03/19 12:51:12;;;;;;;3.40;2.90;;;;;;;7.18;43.13;99587.98;1752655;82;21721;-58
2021/03/19 12:53:42;;;;;;;3.60;2.60;;;;;;;7.34;42.86;99588.73;1753146;82;21162;-60
2021/03/19 12:56:10;;;;;;;5.40;3.58;;;;;;;7.46;42.57;99588.09;1754361;82;21593;-57
2021/03/19 12:58:39;;;;;;;6.08;4.10;;;;;;;7.58;41.69;99591.32;1753662;80;21752;-58
2021/03/19 13:01:08;;;;;;;5.75;4.03;;;;;;;7.64;41.15;99589.45;1754388;82;21561;-58
2021/03/19 13:03:36;;;;;;;5.42;3.30;;;;;;;7.67;40.67;99588.70;1754413;82;21565;-58
2021/03/19 13:06:06;;;;;;;3.90;3.02;;;;;;;7.70;40.75;99583.69;1754202;82;21573;-59
2021/03/19 13:08:38;;;;;;;4.08;2.90;;;;;;;7.60;40.11;99587.64;1754149;82;21344;-58
2021/03/19 13:11:10;;;;;;;7.70;3.50;;;;;;;7.46;40.25;99586.80;1752304;80;21353;-59
2021/03/19 13:13:39;;;;;;;4.80;3.25;;;;;;;7.38;41.17;99582.27;1754296;82;21177;-58
2021/03/19 13:16:08;;;;;;;5.22;3.12;;;;;;;7.39;40.90;99584.39;1754098;82;21130;-57
2021/03/19 13:18:37;;;;;;;3.98;2.90;;;;;;;7.37;40.43;99586.31;1754152;82;21163;-58
2021/03/19 13:21:09;;;;;;;4.10;2.83;;;;;;;7.32;39.96;99588.52;1753364;82;21582;-59
2021/03/19 13:23:37;;;;;;;5.08;3.47;;;;;;;7.28;39.51;99590.10;1754168;82;21617;-57
2021/03/19 13:26:06;;;;;;;8.70;5.30;;;;;;;7.33;39.71;99592.74;1753617;82;21903;-57
2021/03/19 13:28:36;;;;;;;7.12;3.70;;;;;;;7.40;39.35;99591.25;1753272;82;21150;-58
2021/03/19 13:31:05;;;;;;;7.33;4.28;;;;;;;7.48;39.76;99584.86;1749747;82;21300;-58
2021/03/19 13:33:33;;;;;;;8.88;5.30;;;;;;;7.62;38.71;99588.30;1736524;83;21215;-58
2021/03/19 13:36:08;;;;;;;6.35;3.50;;;;;;;7.70;37.78;99587.59;1748049;82;21118;-58
2021/03/19 13:38:37;;;;;;;3.37;2.50;;;;;;;7.72;37.84;99586.51;1749774;81;21325;-58
2021/03/19 13:41:08;;;;;;;6.90;4.53;;;;;;;7.77;37.65;99588.20;1746608;82;21558;-59
2021/03/19 13:43:41;;;;;;;5.97;3.77;;;;;;;7.78;37.27;99587.72;1743498;82;21574;-57
2021/03/19 13:46:13;;;;;;;3.20;2.70;;;;;;;7.69;36.84;99588.08;1739965;82;21253;-57
2021/03/19 13:48:42;;;;;;;6.20;4.72;;;;;;;7.52;36.77;99594.03;1726061;82;21590;-58
2021/03/19 13:51:13;;;;;;;18.35;8.60;;;;;;;7.36;37.34;99593.30;1732492;81;21804;-58
2021/03/19 13:53:42;;;;;;;31.15;11.60;;;;;;;7.28;37.50;99595.30;1748256;81;21302;-59
2021/03/19 13:56:11;;;;;;;22.00;10.45;;;;;;;7.20;37.81;99596.45;1722065;82;21166;-58
2021/03/19 13:58:41;;;;;;;14.10;7.35;;;;;;;7.15;38.07;99598.67;1746140;81;21110;-57
2021/03/19 14:01:10;;;;;;;21.40;11.38;;;;;;;6.99;37.58;99592.72;1748774;82;21554;-56
2021/03/19 14:03:40;;;;;;;17.10;8.63;;;;;;;6.87;37.03;99593.81;1743722;82;21764;-57
2021/03/19 14:06:09;;;;;;;18.52;8.48;;;;;;;6.75;37.01;99600.09;1734035;82;21506;-57
2021/03/19 14:08:39;;;;;;;13.20;6.90;;;;;;;6.54;36.88;99596.80;1747659;82;21598;-57
2021/03/19 14:11:09;;;;;;;11.38;5.22;;;;;;;6.42;36.74;99602.11;1713619;83;21317;-56
2021/03/19 14:13:39;;;;;;;8.90;4.97;;;;;;;6.34;36.47;99603.73;1748419;82;21142;-57
2021/03/19 14:16:09;;;;;;;7.00;3.85;;;;;;;6.29;36.61;99603.30;1741210;82;21578;-57
2021/03/19 14:18:38;;;;;;;12.80;6.33;;;;;;;6.17;37.19;99602.59;1738801;82;21316;-56
2021/03/19 14:21:08;;;;;;;25.72;12.23;;;;;;;6.05;37.51;99605.75;1748236;82;21218;-56
2021/03/19 14:26:47;;;;;;;17.82;8.93;;;;;;;5.86;38.88;99604.35;1718957;78;21185;-57
2021/03/19 14:29:15;;;;;;;15.38;7.28;;;;;;;5.70;39.54;99614.36;1661484;86;21150;-57
2021/03/19 14:31:46;;;;;;;7.40;4.47;;;;;;;5.57;39.76;99615.38;1667641;85;21191;-56
2021/03/19 14:34:14;;;;;;;8.58;4.47;;;;;;;5.47;39.51;99611.93;1683216;85;21614;-57
2021/03/19 14:36:45;;;;;;;19.40;9.33;;;;;;;5.40;40.00;99610.77;1683254;85;21599;-57
